createdAt,value
2022-09-06T00:00:43.391Z,4.63
2022-09-06T00:03:10.090Z,5.17
2022-09-06T00:05:36.584Z,3.80
2022-09-06T00:08:03.833Z,4.90
2022-09-06T00:10:30.923Z,5.10
2022-09-06T00:13:00.525Z,4.77
2022-09-06T00:15:26.960Z,5.43
2022-09-06T00:17:53.285Z,4.73
2022-09-06T00:20:19.669Z,4.40
2022-09-06T00:22:46.041Z,4.53
2022-09-06T00:25:12.432Z,4.97
2022-09-06T00:27:38.750Z,4.70
2022-09-06T00:30:05.716Z,7.87
2022-09-06T00:32:32.508Z,5.03
2022-09-06T00:34:58.890Z,6.13
2022-09-06T00:37:25.337Z,5.43
2022-09-06T00:39:51.746Z,5.30
2022-09-06T00:42:18.176Z,5.00
2022-09-06T00:44:44.524Z,5.17
2022-09-06T00:47:11.058Z,5.43
2022-09-06T00:49:39.581Z,5.20
2022-09-06T00:52:12.796Z,5.07
2022-09-06T00:54:40.226Z,5.33
2022-09-06T00:57:06.878Z,6.03
2022-09-06T00:59:36.085Z,6.00
2022-09-06T01:02:02.889Z,5.00
2022-09-06T01:04:29.646Z,8.23
2022-09-06T01:07:23.842Z,5.90
2022-09-06T01:10:14.873Z,5.63
2022-09-06T01:13:20.450Z,6.33
2022-09-06T01:15:56.948Z,6.20
2022-09-06T01:18:23.324Z,6.03
2022-09-06T01:21:17.544Z,5.60
2022-09-06T01:24:07.610Z,5.27
2022-09-06T01:26:56.968Z,6.00
2022-09-06T01:29:38.326Z,5.77
2022-09-06T01:32:23.470Z,6.10
2022-09-06T01:35:02.662Z,8.07
2022-09-06T01:37:29.247Z,6.47
2022-09-06T01:39:55.807Z,6.70
2022-09-06T01:42:26.476Z,8.53
2022-09-06T01:44:57.340Z,7.97
2022-09-06T01:47:37.490Z,7.47
2022-09-06T01:50:21.244Z,9.33
2022-09-06T01:53:02.622Z,10.13
2022-09-06T01:55:35.265Z,7.33
2022-09-06T01:58:27.950Z,5.97
2022-09-06T02:01:02.739Z,8.43
2022-09-06T02:03:43.290Z,6.43
2022-09-06T02:06:17.023Z,6.20
2022-09-06T02:08:50.859Z,10.30
2022-09-06T02:11:17.582Z,5.57
2022-09-06T02:13:57.862Z,5.53
2022-09-06T02:16:27.386Z,5.73
2022-09-06T02:18:59.613Z,13.43
2022-09-06T02:21:36.028Z,4.67
2022-09-06T02:24:08.642Z,5.37
2022-09-06T02:26:40.324Z,5.60
2022-09-06T02:29:06.768Z,5.23
2022-09-06T02:31:45.050Z,10.83
2022-09-06T02:34:15.352Z,5.53
2022-09-06T02:36:41.834Z,5.17
2022-09-06T02:39:08.133Z,5.40
2022-09-06T02:41:34.902Z,4.97
2022-09-06T02:44:01.635Z,6.10
2022-09-06T02:46:28.084Z,5.53
2022-09-06T02:48:54.679Z,6.23
2022-09-06T02:51:21.079Z,5.83
2022-09-06T02:53:47.420Z,5.70
2022-09-06T02:56:13.785Z,9.80
2022-09-06T02:58:40.170Z,8.43
2022-09-06T03:01:07.022Z,7.43
2022-09-06T03:03:33.542Z,5.43
2022-09-06T03:05:59.964Z,5.10
2022-09-06T03:08:29.202Z,5.07
2022-09-06T03:10:56.777Z,5.07
2022-09-06T03:13:24.554Z,5.60
2022-09-06T03:15:51.587Z,5.70
2022-09-06T03:18:17.909Z,5.53
2022-09-06T03:20:44.390Z,7.30
2022-09-06T03:23:10.965Z,5.90
2022-09-06T03:25:37.358Z,5.17
2022-09-06T03:28:03.767Z,5.70
2022-09-06T03:30:30.196Z,5.20
2022-09-06T03:32:58.155Z,6.57
2022-09-06T03:35:27.174Z,5.50
2022-09-06T03:37:53.549Z,5.87
2022-09-06T03:40:19.979Z,5.70
2022-09-06T03:42:46.500Z,4.40
2022-09-06T03:45:12.970Z,4.97
2022-09-06T03:47:39.616Z,4.90
2022-09-06T03:50:07.023Z,5.67
2022-09-06T03:52:33.323Z,4.70
2022-09-06T03:54:59.701Z,5.50
2022-09-06T03:57:26.100Z,6.00
2022-09-06T03:59:52.475Z,6.17
2022-09-06T04:02:18.963Z,5.77
2022-09-06T04:04:45.411Z,6.07
2022-09-06T04:07:11.868Z,6.10
2022-09-06T04:09:38.190Z,11.27
2022-09-06T04:12:04.827Z,6.03
2022-09-06T04:14:31.116Z,5.90
2022-09-06T04:16:57.489Z,4.70
2022-09-06T04:19:24.032Z,5.43
2022-09-06T04:21:50.462Z,4.77
2022-09-06T04:24:16.850Z,5.93
2022-09-06T04:26:43.202Z,5.27
2022-09-06T04:29:09.595Z,6.37
2022-09-06T04:31:36.035Z,5.40
2022-09-06T04:34:02.352Z,5.60
2022-09-06T04:36:29.768Z,6.13
2022-09-06T04:38:56.064Z,5.73
2022-09-06T04:41:23.051Z,5.27
2022-09-06T04:43:49.413Z,4.90
2022-09-06T04:46:19.493Z,6.03
2022-09-06T04:48:46.854Z,10.13
2022-09-06T04:51:13.375Z,7.27
2022-09-06T04:53:39.701Z,6.97
2022-09-06T04:56:06.116Z,7.37
2022-09-06T04:58:32.777Z,6.17
2022-09-06T05:00:59.158Z,6.20
2022-09-06T05:03:25.658Z,5.53
2022-09-06T05:05:51.980Z,6.20
2022-09-06T05:08:18.891Z,5.60
2022-09-06T05:10:45.290Z,5.57
2022-09-06T05:13:11.717Z,8.63
2022-09-06T05:15:38.047Z,6.27
2022-09-06T05:18:05.201Z,6.23
2022-09-06T05:20:31.680Z,8.90
2022-09-06T05:22:58.060Z,7.77
2022-09-06T05:25:24.472Z,7.87
2022-09-06T05:27:50.867Z,8.90
2022-09-06T05:30:18.252Z,8.07
2022-09-06T05:32:44.595Z,8.30
2022-09-06T05:35:10.983Z,7.67
2022-09-06T05:37:37.351Z,8.80
2022-09-06T05:40:03.995Z,11.10
2022-09-06T05:42:30.441Z,7.90
2022-09-06T05:44:56.841Z,7.50
2022-09-06T05:47:23.140Z,7.57
2022-09-06T05:49:49.509Z,7.03
2022-09-06T05:52:17.217Z,6.80
2022-09-06T05:54:43.589Z,6.60
2022-09-06T05:57:10.106Z,9.63
2022-09-06T05:59:36.397Z,12.23
2022-09-06T06:02:07.079Z,7.93
2022-09-06T06:04:33.929Z,7.57
2022-09-06T06:07:00.289Z,6.80
2022-09-06T06:09:26.644Z,7.03
2022-09-06T06:11:53.061Z,6.80
2022-09-06T06:14:19.518Z,6.43
2022-09-06T06:16:45.866Z,5.97
2022-09-06T06:19:12.264Z,6.20
2022-09-06T06:21:38.971Z,7.43
2022-09-06T06:24:06.272Z,6.73
2022-09-06T06:26:33.940Z,6.47
2022-09-06T06:29:02.285Z,8.13
2022-09-06T06:31:30.099Z,7.33
2022-09-06T06:33:56.681Z,6.13
2022-09-06T06:36:25.316Z,5.83
2022-09-06T06:38:55.161Z,5.33
2022-09-06T06:41:24.421Z,4.70
2022-09-06T06:44:02.718Z,5.33
2022-09-06T06:46:32.051Z,4.83
2022-09-06T06:48:58.559Z,5.37
2022-09-06T06:51:26.486Z,4.20
2022-09-06T06:53:52.960Z,4.60
2022-09-06T06:56:19.445Z,4.90
2022-09-06T06:58:48.681Z,5.23
2022-09-06T07:01:16.565Z,4.80
2022-09-06T07:03:43.086Z,4.27
2022-09-06T07:08:41.879Z,4.63
2022-09-06T07:11:10.650Z,4.23
2022-09-06T07:13:37.709Z,4.77
2022-09-06T07:16:23.383Z,6.27
2022-09-06T07:18:54.474Z,4.40
2022-09-06T07:21:42.236Z,3.80
2022-09-06T07:24:09.658Z,4.50
2022-09-06T07:26:38.558Z,3.90
2022-09-06T07:29:06.049Z,4.10
2022-09-06T07:34:20.390Z,3.67
2022-09-06T07:36:46.877Z,2.63
2022-09-06T07:39:14.024Z,3.67
2022-09-06T07:41:40.382Z,6.63
2022-09-06T07:44:06.677Z,6.07
2022-09-06T07:46:33.114Z,3.30
2022-09-06T07:48:59.494Z,3.03
2022-09-06T07:51:25.884Z,3.70
2022-09-06T07:54:13.243Z,3.60
2022-09-06T07:56:44.305Z,2.10
2022-09-06T07:59:10.711Z,4.10
2022-09-06T08:01:38.946Z,7.73
2022-09-06T08:04:14.872Z,2.80
2022-09-06T08:09:28.914Z,2.17
2022-09-06T08:11:55.293Z,5.60
2022-09-06T08:14:21.584Z,2.17
2022-09-06T08:16:47.952Z,2.80
2022-09-06T08:19:14.493Z,2.73
2022-09-06T08:21:40.823Z,2.00
2022-09-06T08:24:12.478Z,9.13
2022-09-06T08:26:40.563Z,1.80
2022-09-06T08:29:08.610Z,1.73
2022-09-06T08:31:37.597Z,1.67
2022-09-06T08:34:04.329Z,1.70
2022-09-06T08:36:31.292Z,1.53
2022-09-06T08:38:58.139Z,2.73
2022-09-06T08:41:27.635Z,2.30
2022-09-06T08:46:46.894Z,1.63
2022-09-06T08:49:13.580Z,1.57
2022-09-06T08:51:50.918Z,1.45
2022-09-06T08:54:40.577Z,1.27
2022-09-06T08:57:44.566Z,11.57
2022-09-06T09:00:13.422Z,2.35
2022-09-06T09:02:45.532Z,4.18
2022-09-06T09:05:21.391Z,1.55
2022-09-06T09:08:04.097Z,1.42
2022-09-06T09:10:32.416Z,1.25
2022-09-06T09:13:00.761Z,5.97
2022-09-06T09:15:28.751Z,1.20
2022-09-06T09:17:55.489Z,1.30
2022-09-06T09:20:22.700Z,1.05
2022-09-06T09:22:49.316Z,2.13
2022-09-06T09:25:23.107Z,1.20
2022-09-06T09:27:57.602Z,1.95
2022-09-06T09:33:36.904Z,2.05
2022-09-06T09:36:06.595Z,1.88
2022-09-06T09:38:42.222Z,1.20
2022-09-06T09:41:08.949Z,2.03
2022-09-06T09:43:41.456Z,4.70
2022-09-06T09:46:10.937Z,1.95
2022-09-06T09:48:37.982Z,5.15
2022-09-06T09:51:27.021Z,0.98
2022-09-06T09:53:59.457Z,3.30
2022-09-06T09:56:51.601Z,3.22
2022-09-06T09:59:17.955Z,1.20
2022-09-06T10:01:44.354Z,2.78
2022-09-06T10:07:09.950Z,1.00
2022-09-06T10:09:39.611Z,1.80
2022-09-06T10:12:07.030Z,3.83
2022-09-06T10:14:44.620Z,0.98
2022-09-06T10:17:21.838Z,1.10
2022-09-06T10:19:48.715Z,2.05
2022-09-06T10:22:20.854Z,0.80
2022-09-06T10:24:56.327Z,1.33
2022-09-06T10:27:25.455Z,0.93
2022-09-06T10:30:05.687Z,3.90
2022-09-06T10:32:41.675Z,1.15
2022-09-06T10:35:21.015Z,1.00
2022-09-06T10:37:52.045Z,1.10
2022-09-06T10:40:21.191Z,0.90
2022-09-06T10:42:53.768Z,0.80
2022-09-06T10:45:23.707Z,1.00
2022-09-06T10:47:57.883Z,1.25
2022-09-06T10:50:41.393Z,4.88
2022-09-06T10:53:13.667Z,1.10
2022-09-06T10:55:40.905Z,6.93
2022-09-06T10:58:19.657Z,1.25
2022-09-06T11:00:47.268Z,2.83
2022-09-06T11:06:08.990Z,3.08
2022-09-06T11:08:53.287Z,2.38
2022-09-06T11:11:35.510Z,1.33
2022-09-06T11:14:09.412Z,2.60
2022-09-06T11:16:41.955Z,1.20
2022-09-06T11:19:17.602Z,1.38
2022-09-06T11:22:05.865Z,1.15
2022-09-06T11:24:40.888Z,1.45
2022-09-06T11:27:37.426Z,5.28
2022-09-06T11:30:05.879Z,1.20
2022-09-06T11:32:39.867Z,1.85
2022-09-06T11:35:10.924Z,1.30
2022-09-06T11:37:42.855Z,7.82
2022-09-06T11:40:35.741Z,1.55
2022-09-06T11:43:03.012Z,2.60
2022-09-06T11:45:46.479Z,1.33
2022-09-06T11:48:33.888Z,2.35
2022-09-06T11:51:07.388Z,1.25
2022-09-06T11:53:48.747Z,4.25
2022-09-06T11:56:28.507Z,1.17
2022-09-06T11:59:04.099Z,1.35
2022-09-06T12:01:30.456Z,1.23
2022-09-06T12:04:05.146Z,1.05
2022-09-06T12:06:33.016Z,2.90
2022-09-06T12:08:59.810Z,1.75
2022-09-06T12:11:33.999Z,4.03
2022-09-06T12:14:09.271Z,1.23
2022-09-06T12:17:14.004Z,1.48
2022-09-06T12:19:56.014Z,4.03
2022-09-06T12:22:24.843Z,1.30
2022-09-06T12:24:54.469Z,1.60
2022-09-06T12:27:26.791Z,1.30
2022-09-06T12:29:59.598Z,1.20
2022-09-06T12:32:28.419Z,1.25
2022-09-06T12:37:54.802Z,1.58
2022-09-06T12:40:22.969Z,1.45
2022-09-06T12:42:51.143Z,1.08
2022-09-06T12:45:25.141Z,1.25
2022-09-06T12:48:08.645Z,1.30
2022-09-06T12:50:35.062Z,5.07
2022-09-06T12:53:02.326Z,1.40
2022-09-06T12:55:32.458Z,2.60
2022-09-06T12:58:04.536Z,1.50
2022-09-06T13:00:51.431Z,1.33
2022-09-06T13:03:25.899Z,1.27
2022-09-06T13:05:54.749Z,2.35
2022-09-06T13:08:32.663Z,5.78
2022-09-06T13:10:59.542Z,2.28
2022-09-06T13:13:26.473Z,2.03
2022-09-06T13:15:53.573Z,1.73
2022-09-06T13:18:35.292Z,3.08
2022-09-06T13:21:15.647Z,3.20
2022-09-06T13:23:43.909Z,5.13
2022-09-06T13:26:10.352Z,1.70
2022-09-06T13:28:37.186Z,1.58
2022-09-06T13:31:19.115Z,1.67
2022-09-06T13:33:54.487Z,8.68
2022-09-06T13:36:22.689Z,2.15
2022-09-06T13:38:49.181Z,2.63
2022-09-06T13:41:24.609Z,2.33
2022-09-06T13:44:01.567Z,2.35
2022-09-06T13:46:28.023Z,5.45
2022-09-06T13:48:55.090Z,5.38
2022-09-06T13:51:21.706Z,1.95
2022-09-06T13:53:48.867Z,4.82
2022-09-06T13:56:16.746Z,2.10
2022-09-06T13:58:45.066Z,1.75
2022-09-06T14:01:11.923Z,6.72
2022-09-06T14:03:40.640Z,3.58
2022-09-06T14:06:08.120Z,2.22
2022-09-06T14:09:02.923Z,3.33
2022-09-06T14:11:22.831Z,1.90
2022-09-06T14:13:49.619Z,3.55
2022-09-06T14:16:15.992Z,1.75
2022-09-06T14:18:42.404Z,1.90
2022-09-06T14:21:08.833Z,1.77
2022-09-06T14:23:35.476Z,1.63
2022-09-06T14:26:02.986Z,2.03
2022-09-06T14:28:32.172Z,2.60
2022-09-06T14:30:58.705Z,2.33
2022-09-06T14:33:25.179Z,1.60
2022-09-06T14:35:52.335Z,1.67
2022-09-06T14:38:18.750Z,3.38
2022-09-06T14:40:45.145Z,3.33
2022-09-06T14:43:11.618Z,1.45
2022-09-06T14:45:38.189Z,4.50
2022-09-06T14:48:05.482Z,2.00
2022-09-06T14:50:31.806Z,1.73
2022-09-06T14:52:58.526Z,4.35
2022-09-06T14:55:25.094Z,3.50
2022-09-06T14:57:51.438Z,2.65
2022-09-06T15:00:18.850Z,4.10
2022-09-06T15:02:45.371Z,1.98
2022-09-06T15:05:11.773Z,2.67
2022-09-06T15:07:38.142Z,2.83
2022-09-06T15:10:04.630Z,1.63
2022-09-06T15:12:31.136Z,2.92
2022-09-06T15:14:57.531Z,1.73
2022-09-06T15:17:23.844Z,1.75
2022-09-06T15:19:50.515Z,1.73
2022-09-06T15:22:16.841Z,2.85
2022-09-06T15:24:43.318Z,1.30
2022-09-06T15:27:10.009Z,8.80
2022-09-06T15:29:36.337Z,1.48
2022-09-06T15:32:02.829Z,1.30
2022-09-06T15:34:29.181Z,1.33
2022-09-06T15:36:56.999Z,1.30
2022-09-06T15:39:23.343Z,1.40
2022-09-06T15:41:50.634Z,1.30
2022-09-06T15:44:17.900Z,1.00
2022-09-06T15:46:59.808Z,2.38
2022-09-06T15:49:29.171Z,0.85
2022-09-06T15:52:00.808Z,1.08
2022-09-06T15:54:46.727Z,1.55
2022-09-06T15:57:14.297Z,0.85
2022-09-06T15:59:41.255Z,0.77
2022-09-06T16:02:08.516Z,0.80
2022-09-06T16:04:35.102Z,1.23
2022-09-06T16:07:01.481Z,1.00
2022-09-06T16:09:28.232Z,0.85
2022-09-06T16:11:54.652Z,0.90
2022-09-06T16:14:21.483Z,1.10
2022-09-06T16:16:48.315Z,1.10
2022-09-06T16:19:14.740Z,1.45
2022-09-06T16:21:42.488Z,1.80
2022-09-06T16:24:10.087Z,4.18
2022-09-06T16:26:38.197Z,1.13
2022-09-06T16:29:05.547Z,1.10
2022-09-06T16:31:39.165Z,1.83
2022-09-06T16:34:06.534Z,0.80
2022-09-06T16:36:32.860Z,2.33
2022-09-06T16:38:59.270Z,0.93
2022-09-06T16:41:28.943Z,0.90
2022-09-06T16:43:55.571Z,1.10
2022-09-06T16:46:24.748Z,2.78
2022-09-06T16:48:52.801Z,1.55
2022-09-06T16:51:21.871Z,2.70
2022-09-06T16:53:49.144Z,1.33
2022-09-06T16:56:16.794Z,0.90
2022-09-06T16:58:44.562Z,1.00
2022-09-06T17:01:10.945Z,1.33
2022-09-06T17:03:37.682Z,0.93
2022-09-06T17:06:04.683Z,1.00
2022-09-06T17:08:32.771Z,0.95
2022-09-06T17:11:09.366Z,2.38
2022-09-06T17:13:36.554Z,1.42
2022-09-06T17:16:22.643Z,1.20
2022-09-06T17:18:49.288Z,1.15
2022-09-06T17:21:15.717Z,0.95
2022-09-06T17:23:42.182Z,3.13
2022-09-06T17:26:08.672Z,1.58
2022-09-06T17:28:36.893Z,2.95
2022-09-06T17:31:04.246Z,8.98
2022-09-06T17:33:31.821Z,1.20
2022-09-06T17:36:05.777Z,6.53
2022-09-06T17:38:32.518Z,1.08
2022-09-06T17:40:59.821Z,2.10
2022-09-06T17:43:26.746Z,1.38
2022-09-06T17:45:53.210Z,1.00
2022-09-06T17:48:19.721Z,1.00
2022-09-06T17:50:46.189Z,1.40
2022-09-06T17:53:12.550Z,1.20
2022-09-06T17:55:42.428Z,1.00
2022-09-06T17:58:08.960Z,1.10
2022-09-06T18:00:40.117Z,0.98
2022-09-06T18:03:08.300Z,1.50
2022-09-06T18:05:39.634Z,1.25
2022-09-06T18:08:07.758Z,1.42
2022-09-06T18:10:38.189Z,1.30
2022-09-06T18:13:06.039Z,1.40
2022-09-06T18:15:37.866Z,1.23
2022-09-06T18:18:04.330Z,1.60
2022-09-06T18:20:30.709Z,1.95
2022-09-06T18:22:57.203Z,1.77
2022-09-06T18:25:23.635Z,2.60
2022-09-06T18:27:50.001Z,1.60
2022-09-06T18:30:16.468Z,1.30
2022-09-06T18:32:43.505Z,1.30
2022-09-06T18:35:09.926Z,1.52
2022-09-06T18:37:36.588Z,1.50
2022-09-06T18:40:05.167Z,1.63
2022-09-06T18:42:31.917Z,1.90
2022-09-06T18:44:58.355Z,1.75
2022-09-06T18:47:24.688Z,1.63
2022-09-06T18:49:51.100Z,1.40
2022-09-06T18:52:19.604Z,3.13
2022-09-06T18:54:46.080Z,3.67
2022-09-06T18:57:16.368Z,1.42
2022-09-06T18:59:42.937Z,1.33
2022-09-06T19:02:09.370Z,2.80
2022-09-06T19:04:35.824Z,1.88
2022-09-06T19:07:02.647Z,1.30
2022-09-06T19:09:29.070Z,1.45
2022-09-06T19:11:55.502Z,3.00
2022-09-06T19:14:21.960Z,1.50
2022-09-06T19:16:50.189Z,1.77
2022-09-06T19:19:16.950Z,2.10
2022-09-06T19:21:43.329Z,5.50
2022-09-06T19:24:11.528Z,2.13
2022-09-06T19:26:41.607Z,2.57
2022-09-06T19:29:12.526Z,2.07
2022-09-06T19:31:39.485Z,1.97
2022-09-06T19:34:06.318Z,1.80
2022-09-06T19:36:33.456Z,2.37
2022-09-06T19:39:06.179Z,2.23
2022-09-06T19:41:38.137Z,2.07
2022-09-06T19:44:07.667Z,4.57
2022-09-06T19:46:35.065Z,2.30
2022-09-06T19:49:02.133Z,8.53
2022-09-06T19:51:28.491Z,2.63
2022-09-06T19:54:00.229Z,5.90
2022-09-06T19:56:28.561Z,2.20
2022-09-06T19:58:57.297Z,3.03
2022-09-06T20:01:25.738Z,2.60
2022-09-06T20:03:52.511Z,5.03
2022-09-06T20:06:18.990Z,2.50
2022-09-06T20:08:50.434Z,2.37
2022-09-06T20:11:17.394Z,2.43
2022-09-06T20:13:43.828Z,2.07
2022-09-06T20:16:11.530Z,1.97
2022-09-06T20:18:38.095Z,2.57
2022-09-06T20:21:05.622Z,2.27
2022-09-06T20:23:34.239Z,2.13
2022-09-06T20:26:01.644Z,2.53
2022-09-06T20:28:28.671Z,2.03
2022-09-06T20:31:00.642Z,2.53
2022-09-06T20:33:27.110Z,2.90
2022-09-06T20:35:55.682Z,3.20
2022-09-06T20:38:22.832Z,2.97
2022-09-06T20:40:57.766Z,3.30
2022-09-06T20:43:24.712Z,3.70
2022-09-06T20:45:51.101Z,3.53
2022-09-06T20:48:17.447Z,3.60
2022-09-06T20:50:43.858Z,5.03
2022-09-06T20:53:10.354Z,4.77
2022-09-06T20:55:36.882Z,4.87
2022-09-06T20:58:03.233Z,4.83
2022-09-06T21:00:29.598Z,5.70
2022-09-06T21:02:55.949Z,10.77
2022-09-06T21:05:22.517Z,5.77
2022-09-06T21:07:48.805Z,4.00
2022-09-06T21:10:15.118Z,3.80
2022-09-06T21:12:41.484Z,3.47
2022-09-06T21:15:08.100Z,3.40
2022-09-06T21:17:34.500Z,4.60
2022-09-06T21:20:00.887Z,6.83
2022-09-06T21:22:28.408Z,4.30
2022-09-06T21:24:54.821Z,3.80
2022-09-06T21:27:21.189Z,3.97
2022-09-06T21:29:47.720Z,3.37
2022-09-06T21:32:14.068Z,5.17
2022-09-06T21:34:40.413Z,4.40
2022-09-06T21:37:06.912Z,4.43
2022-09-06T21:39:33.257Z,5.87
2022-09-06T21:41:59.694Z,5.07
2022-09-06T21:44:26.199Z,3.83
2022-09-06T21:46:52.646Z,3.53
2022-09-06T21:49:19.073Z,3.90
2022-09-06T21:51:45.446Z,4.30
2022-09-06T21:54:11.879Z,5.33
2022-09-06T21:56:39.397Z,4.43
2022-09-06T21:59:06.718Z,4.80
2022-09-06T22:01:35.515Z,4.67
2022-09-06T22:04:02.235Z,6.97
2022-09-06T22:06:31.001Z,4.47
2022-09-06T22:08:59.977Z,5.30
2022-09-06T22:11:31.946Z,7.77
2022-09-06T22:14:03.169Z,3.97
2022-09-06T22:16:30.058Z,3.90
2022-09-06T22:18:56.501Z,4.87
2022-09-06T22:21:23.400Z,3.57
2022-09-06T22:23:56.869Z,3.90
2022-09-06T22:26:25.600Z,3.57
2022-09-06T22:28:55.673Z,3.43
2022-09-06T22:31:23.360Z,3.43
2022-09-06T22:33:50.646Z,3.13
2022-09-06T22:36:17.214Z,3.63
2022-09-06T22:38:43.661Z,3.17
2022-09-06T22:41:10.553Z,3.10
2022-09-06T22:43:37.181Z,3.03
2022-09-06T22:46:05.311Z,3.60
2022-09-06T22:48:33.092Z,3.00
2022-09-06T22:51:00.573Z,3.20
2022-09-06T22:53:27.970Z,3.30
2022-09-06T22:55:55.295Z,2.80
2022-09-06T22:58:22.384Z,3.23
2022-09-06T23:00:48.797Z,5.13
2022-09-06T23:03:15.216Z,3.13
2022-09-06T23:05:41.615Z,2.73
2022-09-06T23:08:08.218Z,2.80
2022-09-06T23:10:42.582Z,2.77
2022-09-06T23:13:10.396Z,2.57
2022-09-06T23:15:38.614Z,2.57
2022-09-06T23:18:04.987Z,2.80
2022-09-06T23:20:31.488Z,2.87
2022-09-06T23:22:57.905Z,2.83
2022-09-06T23:25:24.341Z,2.77
2022-09-06T23:27:51.217Z,2.90
2022-09-06T23:30:17.670Z,2.90
2022-09-06T23:32:44.030Z,2.77
2022-09-06T23:35:10.381Z,3.63
2022-09-06T23:37:36.796Z,4.10
2022-09-06T23:40:08.327Z,5.60
2022-09-06T23:42:35.400Z,2.50
2022-09-06T23:45:01.763Z,3.07
2022-09-06T23:47:28.040Z,13.97
2022-09-06T23:49:54.432Z,18.53
2022-09-06T23:52:20.780Z,36.13
2022-09-06T23:54:47.047Z,46.73
2022-09-06T23:57:13.409Z,18.33
2022-09-06T23:59:39.753Z,15.00
